Airfield :
LOGIN :

Register | Disclaimer

   EN    FR    IT 

 










Legend :    VFR   Marginal VFR   IFR   Intensive IFR   Very Intensive IFR
Visi :
Ceiling :
>= 8 km
>= 3000ft
5 to 8 km
1000 to 3000 ft
1500m to 5 km
500 to 1000 ft
800 to 1500m
200 to 500 ft
< 800m
< 200 ft
Symbols :   Thunderstorms  Fog  Heavy snow  Heavy precipitations  Wind > 20 kt
SIGMETs :     Misc.  Thunderstorms  Icing  Turbulence  Mountain Waves  Volcanic Ashes






- Airport Elevation : 34 ft
- IATA code : BLK


EGNH - Blackpool

CURRENT METAR :
  • 291050Z 26010KT 9999 FEW020 SCT028 08/05 Q1002

EXPIRED METARs :
  • 291020Z 26011KT 9999 FEW020 SCT045 08/05 Q1002
  • 290950Z 27010KT 9999 FEW016 SCT045 08/05 Q1002
  • 290920Z 27011KT 9999 FEW020 SCT038 07/05 Q1002
  • 290850Z 27014KT 9999 FEW020 07/04 Q1002
  • 290820Z 27010KT 9999 FEW016 07/05 Q1002
  • 290750Z 26011KT 9999 FEW016 07/04 Q1002 RERA
  • 290720Z 26012KT 9999 FEW020 07/05 Q1002 RERA
  • 290650Z 27013KT 9999 FEW025 07/04 Q1002 RERA
  • 290620Z 27014KT 9999 FEW030 07/04 Q1002 RERA

TAF TAF EGNH
Valid from the 29 at 09:00 until the 29 at 18:00 UTC


290755Z 2909/2918 23010KT 9999 FEW025
PROB30
TEMPO 2914/2918 7000 SHRA
ATIS : +44 1253 343 434 (x8315)



MET'MAP, your aeronautical weather chart ! - Copyright ORBIFLY December 2007 - Disclaimer

ORBIFLY MET'MAP TEAM :

Programming & Development : Alexandra Zaïnal
Original concept : Baudouin d'Aumeries
Technical & hardware support : Manuel Goepfert
Assistance : Marc-Olivier Méhu




SOURCES & CREDITS :

   NOAA